Time;durP1;ratioP1;P1;durP2;ratioP2;P2;SDS_P1;SDS_P2;PMS_P1;PMS_P2;Temp;Humidity;BMP_temperature;BMP_pressure;BME280_temperature;BME280_humidity;BME280_pressure;Samples;Min_cycle;Max_cycle;Signal;HPM_P1;HPM_P2
2021/07/11 00:00:24;;;;;;;649.47;593.20;;;;;;;;;;5210880;27;20198;-84
2021/07/11 00:02:54;;;;;;;640.72;589.28;;;;;;;;;;5210965;27;20022;-85
2021/07/11 00:05:23;;;;;;;627.47;579.20;;;;;;;;;;5211315;27;20073;-83
2021/07/11 00:07:51;;;;;;;562.80;516.40;;;;;;;;;;5207054;27;20709;-84
2021/07/11 00:10:21;;;;;;;548.72;504.27;;;;;;;;;;5204345;27;20062;-84
2021/07/11 00:12:51;;;;;;;722.97;659.70;;;;;;;;;;5208750;27;20019;-84
2021/07/11 00:15:22;;;;;;;739.33;674.67;;;;;;;;;;5208149;27;20081;-84
2021/07/11 00:17:52;;;;;;;584.55;536.90;;;;;;;;;;5209203;27;20041;-84
2021/07/11 00:20:21;;;;;;;674.85;616.42;;;;;;;;;;5206418;27;20465;-84
2021/07/11 00:22:50;;;;;;;669.85;610.03;;;;;;;;;;5209769;27;20105;-84
2021/07/11 00:25:18;;;;;;;732.72;668.42;;;;;;;;;;5208936;27;20023;-85
2021/07/11 00:27:47;;;;;;;674.55;620.67;;;;;;;;;;5206098;27;20080;-85
2021/07/11 00:30:17;;;;;;;692.78;637.28;;;;;;;;;;5205530;27;20015;-84
2021/07/11 00:32:46;;;;;;;662.95;606.08;;;;;;;;;;5209060;27;20031;-84
2021/07/11 00:35:15;;;;;;;672.15;616.00;;;;;;;;;;5207138;27;20655;-84
2021/07/11 00:37:44;;;;;;;683.38;621.17;;;;;;;;;;5205595;27;20026;-84
2021/07/11 00:40:15;;;;;;;693.70;633.45;;;;;;;;;;5207669;27;20034;-84
2021/07/11 00:42:44;;;;;;;753.15;686.45;;;;;;;;;;5189276;27;20023;-84
2021/07/11 00:45:14;;;;;;;791.15;721.42;;;;;;;;;;5207664;27;20483;-84
2021/07/11 00:47:45;;;;;;;679.05;623.92;;;;;;;;;;5208325;27;20046;-84
2021/07/11 00:50:15;;;;;;;643.00;592.63;;;;;;;;;;5207975;27;20066;-84
2021/07/11 00:52:52;;;;;;;676.08;619.53;;;;;;;;;;5208792;27;20493;-85
2021/07/11 00:55:23;;;;;;;793.22;727.17;;;;;;;;;;5207627;27;20023;-83
2021/07/11 00:57:52;;;;;;;658.85;603.22;;;;;;;;;;5208074;27;20054;-84
2021/07/11 01:00:21;;;;;;;659.58;607.10;;;;;;;;;;5209970;27;20085;-83
2021/07/11 01:02:57;;;;;;;698.10;640.47;;;;;;;;;;5207898;27;20041;-84
2021/07/11 01:05:27;;;;;;;682.85;628.38;;;;;;;;;;5207267;27;20019;-84
2021/07/11 01:07:57;;;;;;;753.22;692.47;;;;;;;;;;5206795;27;20025;-83
2021/07/11 01:10:32;;;;;;;646.92;596.20;;;;;;;;;;5209240;27;20049;-83
2021/07/11 01:13:02;;;;;;;577.10;527.35;;;;;;;;;;5208357;27;20377;-84
2021/07/11 01:15:32;;;;;;;673.30;618.75;;;;;;;;;;5205749;27;21066;-87
2021/07/11 01:18:02;;;;;;;744.17;685.60;;;;;;;;;;5208029;27;20533;-86
2021/07/11 01:20:40;;;;;;;671.10;619.05;;;;;;;;;;5210648;27;20083;-86
2021/07/11 01:23:11;;;;;;;676.53;620.97;;;;;;;;;;5207770;27;20082;-86
2021/07/11 01:25:47;;;;;;;634.35;580.83;;;;;;;;;;5208320;27;20410;-84
2021/07/11 01:28:17;;;;;;;651.65;599.15;;;;;;;;;;5206219;27;20022;-83
2021/07/11 01:30:48;;;;;;;644.15;591.58;;;;;;;;;;5210702;27;20564;-84
2021/07/11 01:33:18;;;;;;;667.75;611.60;;;;;;;;;;5205137;27;20023;-84
2021/07/11 01:35:48;;;;;;;657.28;605.20;;;;;;;;;;5206435;27;20074;-84
2021/07/11 01:38:17;;;;;;;644.28;594.22;;;;;;;;;;5206585;27;20060;-82
2021/07/11 01:40:48;;;;;;;613.47;564.90;;;;;;;;;;5209615;27;20039;-84
2021/07/11 01:43:24;;;;;;;607.65;560.50;;;;;;;;;;5207277;27;20045;-83
2021/07/11 01:45:54;;;;;;;508.12;472.52;;;;;;;;;;5206925;27;20027;-85
2021/07/11 01:48:23;;;;;;;450.85;419.15;;;;;;;;;;5189453;27;20521;-84
2021/07/11 01:50:54;;;;;;;401.77;370.75;;;;;;;;;;5188905;27;20033;-84
2021/07/11 01:53:26;;;;;;;458.33;425.42;;;;;;;;;;5206930;27;20743;-84
2021/07/11 01:55:55;;;;;;;394.23;366.58;;;;;;;;;;5205857;27;20025;-84
2021/07/11 01:58:24;;;;;;;532.08;493.65;;;;;;;;;;5207494;27;20471;-84
2021/07/11 02:00:54;;;;;;;372.27;342.73;;;;;;;;;;5205262;27;20323;-83
2021/07/11 02:03:24;;;;;;;422.00;392.08;;;;;;;;;;5206275;27;20027;-84
2021/07/11 02:05:54;;;;;;;561.35;514.72;;;;;;;;;;5203510;27;20373;-85
2021/07/11 02:08:23;;;;;;;590.42;541.70;;;;;;;;;;5206376;27;20019;-85
2021/07/11 02:10:54;;;;;;;503.67;461.73;;;;;;;;;;5208757;27;20057;-83
2021/07/11 02:13:28;;;;;;;590.40;541.45;;;;;;;;;;5206675;27;20035;-85
2021/07/11 02:16:01;;;;;;;691.03;633.25;;;;;;;;;;5205484;27;20049;-83
2021/07/11 02:18:30;;;;;;;569.30;522.28;;;;;;;;;;5206799;27;20022;-84
2021/07/11 02:20:58;;;;;;;551.60;506.77;;;;;;;;;;5204579;27;20334;-84
2021/07/11 02:23:31;;;;;;;658.67;601.80;;;;;;;;;;5205605;27;20034;-84
2021/07/11 02:26:00;;;;;;;492.90;450.65;;;;;;;;;;5185476;27;20343;-84
2021/07/11 02:28:31;;;;;;;574.62;526.85;;;;;;;;;;5206320;27;20030;-84
2021/07/11 02:31:01;;;;;;;557.28;511.23;;;;;;;;;;5207500;27;20070;-84
2021/07/11 02:33:36;;;;;;;581.03;532.83;;;;;;;;;;5208183;27;20023;-84
2021/07/11 02:36:06;;;;;;;732.20;661.97;;;;;;;;;;5208179;27;20446;-84
2021/07/11 02:39:02;;;;;;;454.50;418.55;;;;;;;;;;5205612;27;20538;-84
2021/07/11 02:41:33;;;;;;;446.85;411.45;;;;;;;;;;5206294;27;20014;-84
2021/07/11 02:44:03;;;;;;;519.03;478.12;;;;;;;;;;5207512;27;20057;-84
2021/07/11 02:46:34;;;;;;;592.63;544.00;;;;;;;;;;5208374;27;20406;-85
2021/07/11 02:49:05;;;;;;;570.53;520.70;;;;;;;;;;5206070;27;20843;-85
2021/07/11 02:51:36;;;;;;;677.10;617.65;;;;;;;;;;5208664;27;20053;-85
2021/07/11 02:54:06;;;;;;;619.72;571.05;;;;;;;;;;5206419;27;20078;-84
2021/07/11 02:56:38;;;;;;;493.50;454.95;;;;;;;;;;5206626;27;20429;-84
2021/07/11 02:59:09;;;;;;;512.33;472.42;;;;;;;;;;5206789;27;20035;-84
2021/07/11 03:01:41;;;;;;;557.28;515.08;;;;;;;;;;5208457;27;20519;-84
2021/07/11 03:04:13;;;;;;;584.53;537.33;;;;;;;;;;5206285;27;20027;-84
2021/07/11 03:06:42;;;;;;;563.35;517.95;;;;;;;;;;5206430;27;20014;-84
2021/07/11 03:09:11;;;;;;;581.55;532.22;;;;;;;;;;5205842;27;20088;-84
2021/07/11 03:11:43;;;;;;;629.15;572.30;;;;;;;;;;5211211;27;20412;-93
2021/07/11 03:14:26;;;;;;;595.20;545.00;;;;;;;;;;5198359;27;20348;-94
2021/07/11 03:17:15;;;;;;;595.83;548.40;;;;;;;;;;5198536;27;20023;-94
2021/07/11 03:19:48;;;;;;;526.28;483.30;;;;;;;;;;5180215;27;20034;-94
2021/07/11 03:22:22;;;;;;;474.38;435.30;;;;;;;;;;5198520;27;20067;-95
2021/07/11 03:25:16;;;;;;;519.22;476.40;;;;;;;;;;5222063;27;20094;-96
2021/07/11 03:28:05;;;;;;;435.15;399.83;;;;;;;;;;5190203;27;20077;-96
2021/07/11 03:30:40;;;;;;;543.92;499.60;;;;;;;;;;5208654;27;20047;-96
2021/07/11 03:33:23;;;;;;;515.67;473.85;;;;;;;;;;5189979;27;20027;-95
2021/07/11 03:36:07;;;;;;;398.08;367.37;;;;;;;;;;5192777;27;20022;-96
2021/07/11 03:39:01;;;;;;;491.70;451.37;;;;;;;;;;5177829;27;20033;-96
2021/07/11 03:41:51;;;;;;;454.77;420.33;;;;;;;;;;5205110;27;20019;-95
2021/07/11 03:44:48;;;;;;;;;;;;;;;;;;;;;
2021/07/11 03:47:23;;;;;;;522.08;479.62;;;;;;;;;;5204630;27;20067;-95
2021/07/11 03:53:25;;;;;;;350.62;324.52;;;;;;;;;;5221915;27;20415;-96
2021/07/11 03:56:16;;;;;;;371.10;341.98;;;;;;;;;;5189535;27;20023;-96
2021/07/11 03:59:24;;;;;;;469.25;437.38;;;;;;;;;;5197795;27;20572;-96
2021/07/11 04:02:16;;;;;;;424.55;390.27;;;;;;;;;;5165577;27;20451;-96
2021/07/11 04:05:20;;;;;;;441.42;406.50;;;;;;;;;;5168385;27;20035;-96
2021/07/11 04:07:58;;;;;;;453.23;417.83;;;;;;;;;;5183226;27;20015;-96
2021/07/11 04:10:32;;;;;;;454.20;419.27;;;;;;;;;;5163809;27;20053;-96
2021/07/11 04:13:21;;;;;;;;;;;;;;;;;;;;;
2021/07/11 04:16:31;;;;;;;452.88;420.10;;;;;;;;;;5183875;27;20031;-96
2021/07/11 04:19:29;;;;;;;387.92;359.52;;;;;;;;;;5166839;27;20030;-96
2021/07/11 04:22:06;;;;;;;459.30;428.92;;;;;;;;;;5165406;27;20031;-96
2021/07/11 04:24:51;;;;;;;464.55;431.95;;;;;;;;;;5183038;27;20014;-96
2021/07/11 04:27:39;;;;;;;427.60;397.90;;;;;;;;;;5164486;27;20081;-96
2021/07/11 04:30:15;;;;;;;434.70;404.48;;;;;;;;;;5167869;27;20042;-96
2021/07/11 04:33:00;;;;;;;417.67;386.17;;;;;;;;;;5171281;27;20042;-96
2021/07/11 04:36:05;;;;;;;477.10;439.48;;;;;;;;;;5170449;27;20025;-96
2021/07/11 04:38:45;;;;;;;403.73;371.65;;;;;;;;;;5172362;27;20037;-96
2021/07/11 04:41:39;;;;;;;443.85;408.12;;;;;;;;;;5174227;27;20721;-96
2021/07/11 04:44:47;;;;;;;418.15;390.30;;;;;;;;;;5171259;27;20046;-96
2021/07/11 04:47:57;;;;;;;382.25;355.08;;;;;;;;;;5176289;27;20015;-96
2021/07/11 04:50:48;;;;;;;370.85;346.45;;;;;;;;;;5166680;27;20092;-96
2021/07/11 04:53:53;;;;;;;478.83;446.40;;;;;;;;;;5171885;27;20051;-96
2021/07/11 04:56:38;;;;;;;400.30;370.98;;;;;;;;;;5183698;27;20027;-96
2021/07/11 04:59:12;;;;;;;546.28;503.40;;;;;;;;;;5147473;27;20027;-96
2021/07/11 05:01:54;;;;;;;473.48;437.80;;;;;;;;;;5189030;27;20030;-96
2021/07/11 05:04:36;;;;;;;418.37;389.33;;;;;;;;;;5171379;27;20033;-96
2021/07/11 05:07:38;;;;;;;425.05;396.60;;;;;;;;;;5180878;27;20336;-96
2021/07/11 05:10:46;;;;;;;445.58;411.98;;;;;;;;;;5171953;27;20054;-96
2021/07/11 05:13:20;;;;;;;510.55;470.67;;;;;;;;;;5184090;27;20023;-95
2021/07/11 05:16:04;;;;;;;452.20;422.30;;;;;;;;;;5186067;27;20047;-96
2021/07/11 05:18:50;;;;;;;;;;;;;;;;;;;;;
2021/07/11 05:21:31;;;;;;;390.00;365.00;;;;;;;;;;5185918;27;20835;-95
2021/07/11 05:24:13;;;;;;;406.33;380.42;;;;;;;;;;5171975;27;20428;-96
2021/07/11 05:26:55;;;;;;;393.67;365.58;;;;;;;;;;5169930;27;20007;-96
2021/07/11 05:29:38;;;;;;;408.48;378.25;;;;;;;;;;5163205;27;20027;-96
2021/07/11 05:32:12;;;;;;;546.70;504.77;;;;;;;;;;5166831;27;20014;-96
2021/07/11 05:34:41;;;;;;;569.13;526.58;;;;;;;;;;5162840;27;20061;-96
2021/07/11 05:37:15;;;;;;;661.05;607.25;;;;;;;;;;5162319;27;20015;-96
2021/07/11 05:39:53;;;;;;;563.45;521.10;;;;;;;;;;5181928;27;20025;-95
2021/07/11 05:42:25;;;;;;;538.78;496.35;;;;;;;;;;5163401;27;20047;-96
2021/07/11 05:45:26;;;;;;;590.15;543.20;;;;;;;;;;5168673;27;20027;-96
2021/07/11 05:48:33;;;;;;;559.22;517.95;;;;;;;;;;5170084;27;20030;-96
2021/07/11 05:51:12;;;;;;;522.22;482.10;;;;;;;;;;5156412;27;20035;-95
2021/07/11 05:53:42;;;;;;;654.55;599.28;;;;;;;;;;5175286;27;20042;-95
2021/07/11 05:56:16;;;;;;;591.83;547.10;;;;;;;;;;5176302;27;20021;-95
2021/07/11 05:58:48;;;;;;;604.80;559.67;;;;;;;;;;5164764;27;20024;-95
2021/07/11 06:01:19;;;;;;;745.83;677.53;;;;;;;;;;5159437;27;20085;-95
2021/07/11 06:04:02;;;;;;;790.15;711.28;;;;;;;;;;5176989;27;20061;-96
2021/07/11 06:06:41;;;;;;;648.20;596.30;;;;;;;;;;5158980;27;20011;-96
2021/07/11 06:09:12;;;;;;;785.28;706.58;;;;;;;;;;5175037;27;20038;-94
2021/07/11 06:11:43;;;;;;;897.50;798.95;;;;;;;;;;5158180;27;20019;-96
2021/07/11 06:14:15;;;;;;;835.37;753.50;;;;;;;;;;5158177;27;20334;-93
2021/07/11 06:16:49;;;;;;;860.05;770.00;;;;;;;;;;5158833;27;20007;-96
2021/07/11 06:19:23;;;;;;;826.42;748.85;;;;;;;;;;5176717;27;20019;-95
2021/07/11 06:21:55;;;;;;;702.72;645.67;;;;;;;;;;5159975;27;20062;-95
2021/07/11 06:24:33;;;;;;;747.08;686.08;;;;;;;;;;5163591;27;20049;-96
2021/07/11 06:27:07;;;;;;;;;;;;;;;;;;5161082;27;20022;-96
2021/07/11 06:29:36;;;;;;;638.78;585.20;;;;;;;;;;5160108;27;19978;-96
2021/07/11 06:32:17;;;;;;;627.28;571.70;;;;;;;;;;5161942;27;20028;-96
2021/07/11 06:34:49;;;;;;;548.08;501.95;;;;;;;;;;5177933;27;20010;-96
2021/07/11 06:37:21;;;;;;;534.37;494.15;;;;;;;;;;5160671;27;20046;-96
2021/07/11 06:39:54;;;;;;;576.15;531.33;;;;;;;;;;5161556;27;20094;-96
2021/07/11 06:42:23;;;;;;;540.22;494.25;;;;;;;;;;5161540;27;20019;-95
2021/07/11 06:45:20;;;;;;;578.03;533.70;;;;;;;;;;5166065;27;20432;-96
2021/07/11 06:47:56;;;;;;;586.78;539.83;;;;;;;;;;5164958;27;20015;-96
2021/07/11 06:50:31;;;;;;;556.65;511.65;;;;;;;;;;5178706;27;20427;-96
2021/07/11 06:53:06;;;;;;;589.60;541.70;;;;;;;;;;5162437;27;20061;-95
2021/07/11 06:55:41;;;;;;;537.22;493.83;;;;;;;;;;5162301;27;20412;-96
2021/07/11 06:58:16;;;;;;;597.55;548.35;;;;;;;;;;5160057;27;20026;-96
2021/07/11 07:00:52;;;;;;;613.53;563.95;;;;;;;;;;5159793;27;20094;-95
2021/07/11 07:03:33;;;;;;;675.53;613.30;;;;;;;;;;5161932;27;20023;-95
2021/07/11 07:06:15;;;;;;;638.65;583.72;;;;;;;;;;5162197;27;20411;-96
2021/07/11 07:08:45;;;;;;;641.10;587.33;;;;;;;;;;5194091;27;20019;-96
2021/07/11 07:11:18;;;;;;;;;;;;;;;;;;5159525;27;20031;-95
2021/07/11 07:13:52;;;;;;;609.67;558.08;;;;;;;;;;5178263;27;19958;-95
2021/07/11 07:16:27;;;;;;;669.65;608.47;;;;;;;;;;5160960;27;20034;-96
2021/07/11 07:19:02;;;;;;;588.67;540.85;;;;;;;;;;5180514;27;20636;-96
2021/07/11 07:21:39;;;;;;;439.67;404.77;;;;;;;;;;5163190;27;20456;-96
2021/07/11 07:24:19;;;;;;;467.20;429.38;;;;;;;;;;5165028;27;20021;-96
2021/07/11 07:27:14;;;;;;;568.17;522.58;;;;;;;;;;5166242;27;20035;-96
2021/07/11 07:30:04;;;;;;;666.47;609.92;;;;;;;;;;5167220;27;20019;-96
2021/07/11 07:32:55;;;;;;;;;;;;;;;;;;;;;
2021/07/11 07:35:42;;;;;;;915.17;819.30;;;;;;;;;;5179708;27;20027;-96
2021/07/11 07:38:22;;;;;;;850.20;764.10;;;;;;;;;;5162996;27;20011;-96
2021/07/11 07:41:07;;;;;;;772.97;702.42;;;;;;;;;;5183434;27;20022;-96
2021/07/11 07:43:40;;;;;;;1160.72;887.67;;;;;;;;;;5163564;27;20019;-96
2021/07/11 07:46:17;;;;;;;829.47;748.50;;;;;;;;;;5163169;27;20053;-96
2021/07/11 07:48:49;;;;;;;1040.15;851.28;;;;;;;;;;5162224;27;20042;-96
2021/07/11 07:51:33;;;;;;;800.00;724.12;;;;;;;;;;5164412;27;20023;-95
2021/07/11 07:54:07;;;;;;;832.17;752.13;;;;;;;;;;5161189;27;20024;-96
2021/07/11 07:56:50;;;;;;;1009.13;852.58;;;;;;;;;;5161881;27;20030;-96
2021/07/11 08:00:02;;;;;;;;;;;;;;;;;;;;;
2021/07/11 08:02:42;;;;;;;1076.50;847.65;;;;;;;;;;5180801;27;20042;-96
2021/07/11 08:05:38;;;;;;;1250.50;891.55;;;;;;;;;;5165984;27;20062;-96
2021/07/11 08:08:56;;;;;;;804.65;724.83;;;;;;;;;;5189384;27;20101;-96
2021/07/11 14:54:50;;;;;;;601.65;552.08;;;;;;;;;;5310261;26;20021;-84
2021/07/11 14:57:22;;;;;;;623.22;570.25;;;;;;;;;;5316057;27;20340;-83
2021/07/11 14:59:50;;;;;;;641.05;584.60;;;;;;;;;;5306744;27;20138;-85
2021/07/11 15:02:19;;;;;;;781.10;704.75;;;;;;;;;;5306950;26;20060;-83
2021/07/11 15:04:48;;;;;;;539.70;495.27;;;;;;;;;;5305298;27;20096;-84
2021/07/11 15:07:17;;;;;;;836.80;747.75;;;;;;;;;;5308281;26;20387;-84
2021/07/11 15:09:45;;;;;;;713.08;647.45;;;;;;;;;;5307415;26;20050;-85
2021/07/11 15:12:15;;;;;;;458.50;420.35;;;;;;;;;;5307415;26;20052;-84
2021/07/11 15:14:44;;;;;;;562.60;513.17;;;;;;;;;;5304797;26;20050;-85
2021/07/11 15:17:12;;;;;;;648.70;590.17;;;;;;;;;;5306265;26;20106;-85
2021/07/11 15:19:41;;;;;;;708.33;645.58;;;;;;;;;;5305045;27;20048;-84
2021/07/11 15:22:10;;;;;;;449.73;413.17;;;;;;;;;;5306544;27;20060;-84
2021/07/11 15:24:38;;;;;;;811.05;727.50;;;;;;;;;;5307906;27;20055;-85
2021/07/11 15:27:07;;;;;;;604.90;557.70;;;;;;;;;;5307097;27;20403;-85
2021/07/11 15:29:37;;;;;;;662.90;602.22;;;;;;;;;;5307056;26;20040;-84
2021/07/11 15:32:11;;;;;;;607.60;555.28;;;;;;;;;;5305594;27;20714;-85
2021/07/11 15:34:40;;;;;;;655.00;597.75;;;;;;;;;;5309277;27;20462;-84
2021/07/11 15:37:08;;;;;;;772.63;697.72;;;;;;;;;;5310633;26;20076;-85
2021/07/11 15:39:37;;;;;;;661.65;602.85;;;;;;;;;;5309771;27;20051;-84
2021/07/11 15:42:06;;;;;;;755.28;682.70;;;;;;;;;;5308139;27;20370;-85
2021/07/11 15:44:34;;;;;;;676.95;612.28;;;;;;;;;;5310990;26;20158;-84
2021/07/11 15:47:03;;;;;;;698.22;632.75;;;;;;;;;;5310812;27;20367;-84
2021/07/11 15:49:32;;;;;;;647.87;592.67;;;;;;;;;;5310915;27;20058;-85
2021/07/11 15:52:00;;;;;;;632.58;575.83;;;;;;;;;;5311782;26;20021;-84
2021/07/11 15:54:29;;;;;;;522.10;480.67;;;;;;;;;;5309730;26;20039;-84
2021/07/11 15:56:59;;;;;;;630.35;577.33;;;;;;;;;;5310008;27;20031;-85
2021/07/11 15:59:28;;;;;;;666.65;609.47;;;;;;;;;;5310634;26;20047;-84
2021/07/11 16:01:57;;;;;;;912.70;748.25;;;;;;;;;;5310207;27;20022;-84
2021/07/11 16:04:26;;;;;;;728.25;662.33;;;;;;;;;;5310792;26;20451;-85
2021/07/11 16:06:55;;;;;;;810.75;723.35;;;;;;;;;;5309271;26;20028;-84
2021/07/11 16:09:23;;;;;;;587.25;529.67;;;;;;;;;;5311281;26;20288;-84
2021/07/11 16:11:52;;;;;;;913.97;771.20;;;;;;;;;;5310617;26;20070;-84
2021/07/11 16:14:22;;;;;;;633.58;579.03;;;;;;;;;;5310891;26;20288;-85
2021/07/11 16:16:50;;;;;;;713.33;642.55;;;;;;;;;;5309979;26;20036;-84
2021/07/11 16:19:19;;;;;;;608.50;554.58;;;;;;;;;;5311468;26;20044;-84
2021/07/11 16:21:48;;;;;;;671.08;610.25;;;;;;;;;;5313259;27;20013;-85
2021/07/11 16:24:16;;;;;;;784.72;703.67;;;;;;;;;;5313683;27;20025;-85
2021/07/11 16:26:45;;;;;;;570.97;519.62;;;;;;;;;;5310001;26;20075;-84
2021/07/11 16:29:13;;;;;;;672.65;604.55;;;;;;;;;;5310555;27;20031;-85
2021/07/11 16:31:42;;;;;;;739.45;671.50;;;;;;;;;;5312312;27;20298;-84
2021/07/11 16:34:11;;;;;;;532.22;488.48;;;;;;;;;;5313085;26;20457;-84
2021/07/11 16:36:39;;;;;;;989.87;800.65;;;;;;;;;;5312185;26;20048;-84
2021/07/11 16:39:08;;;;;;;653.38;595.90;;;;;;;;;;5312971;27;20028;-84
2021/07/11 16:41:38;;;;;;;597.90;546.30;;;;;;;;;;5311759;26;20524;-84
2021/07/11 16:44:06;;;;;;;945.03;795.38;;;;;;;;;;5312352;26;20094;-84
2021/07/11 16:46:35;;;;;;;702.10;636.28;;;;;;;;;;5311905;26;20061;-84
2021/07/11 16:49:04;;;;;;;1027.22;823.65;;;;;;;;;;5313754;27;20100;-84
2021/07/11 16:51:33;;;;;;;854.65;762.35;;;;;;;;;;5312924;27;20049;-84
2021/07/11 16:54:01;;;;;;;727.95;655.08;;;;;;;;;;5314133;27;20021;-84
2021/07/11 16:56:30;;;;;;;633.33;576.75;;;;;;;;;;5307659;27;20029;-84
2021/07/11 16:58:59;;;;;;;638.80;584.33;;;;;;;;;;5312828;26;20023;-84
2021/07/11 17:01:27;;;;;;;550.97;502.75;;;;;;;;;;5311065;27;20273;-85
2021/07/11 17:03:56;;;;;;;443.33;407.45;;;;;;;;;;5312409;27;20449;-84
2021/07/11 17:06:25;;;;;;;441.75;403.95;;;;;;;;;;5309080;26;20495;-84
2021/07/11 17:08:54;;;;;;;485.37;443.02;;;;;;;;;;5312545;26;20080;-85
2021/07/11 17:11:23;;;;;;;529.33;481.98;;;;;;;;;;5310667;27;20109;-84
2021/07/11 17:13:52;;;;;;;348.67;320.33;;;;;;;;;;5310562;26;20029;-85
2021/07/11 17:16:20;;;;;;;401.23;367.25;;;;;;;;;;5308084;27;20403;-85
2021/07/11 17:18:50;;;;;;;534.33;486.38;;;;;;;;;;5310136;27;20049;-84
2021/07/11 17:21:19;;;;;;;647.95;581.25;;;;;;;;;;5290598;27;20013;-84
2021/07/11 17:23:47;;;;;;;736.83;659.47;;;;;;;;;;5312392;27;20032;-84
2021/07/11 17:26:16;;;;;;;804.95;710.28;;;;;;;;;;5308803;26;20040;-84
2021/07/11 17:28:44;;;;;;;374.85;342.15;;;;;;;;;;5312230;27;20041;-84
2021/07/11 17:31:13;;;;;;;680.78;592.15;;;;;;;;;;5310602;27;20045;-84
2021/07/11 17:33:42;;;;;;;293.75;269.15;;;;;;;;;;5312647;26;20045;-84
2021/07/11 17:36:11;;;;;;;525.65;475.65;;;;;;;;;;5311302;27;20005;-84
2021/07/11 17:38:39;;;;;;;443.55;401.37;;;;;;;;;;5311635;27;20027;-85
2021/07/11 17:41:09;;;;;;;839.72;656.65;;;;;;;;;;5309434;26;20033;-85
2021/07/11 17:43:37;;;;;;;499.80;445.45;;;;;;;;;;5313631;26;20013;-85
2021/07/11 17:46:12;;;;;;;610.30;543.97;;;;;;;;;;5311958;27;20480;-85
2021/07/11 17:48:41;;;;;;;602.58;536.88;;;;;;;;;;5317026;27;20012;-84
2021/07/11 17:51:10;;;;;;;1183.78;807.30;;;;;;;;;;5315770;27;20040;-86
2021/07/11 17:53:38;;;;;;;647.20;573.08;;;;;;;;;;5318217;27;20071;-87
2021/07/11 17:56:07;;;;;;;722.83;616.28;;;;;;;;;;5311871;26;20055;-86
2021/07/11 17:58:36;;;;;;;728.50;649.17;;;;;;;;;;5317063;27;20747;-87
2021/07/11 18:01:04;;;;;;;994.37;740.90;;;;;;;;;;5316614;26;20373;-87
2021/07/11 18:03:33;;;;;;;931.55;697.37;;;;;;;;;;5316934;27;20478;-87
2021/07/11 18:06:01;;;;;;;658.25;576.03;;;;;;;;;;5318474;26;20044;-87
2021/07/11 18:08:30;;;;;;;779.85;664.60;;;;;;;;;;5318915;27;20016;-87
2021/07/11 18:10:59;;;;;;;750.85;631.75;;;;;;;;;;5315535;27;20307;-86
2021/07/11 18:13:27;;;;;;;996.53;762.67;;;;;;;;;;5315999;26;20285;-87
2021/07/11 18:15:56;;;;;;;1135.55;830.03;;;;;;;;;;5314175;27;20441;-86
2021/07/11 18:18:25;;;;;;;996.50;772.55;;;;;;;;;;5317617;27;20025;-86
2021/07/11 18:20:56;;;;;;;651.60;589.05;;;;;;;;;;5315081;27;20013;-86
2021/07/11 18:23:29;;;;;;;848.00;764.83;;;;;;;;;;5315713;26;20036;-87
2021/07/11 18:25:58;;;;;;;1134.70;885.22;;;;;;;;;;5315976;27;20301;-87
2021/07/11 18:28:26;;;;;;;753.55;682.38;;;;;;;;;;5315949;27;20058;-87
2021/07/11 18:30:55;;;;;;;546.60;497.65;;;;;;;;;;5314485;27;20088;-86
2021/07/11 18:33:28;;;;;;;1017.03;813.05;;;;;;;;;;5315452;26;20201;-86
2021/07/11 18:36:00;;;;;;;854.83;759.15;;;;;;;;;;5315562;26;20039;-87
2021/07/11 18:38:29;;;;;;;816.05;732.10;;;;;;;;;;5318590;26;20039;-87
2021/07/11 18:40:57;;;;;;;933.47;743.05;;;;;;;;;;5315881;27;20029;-86
2021/07/11 18:43:26;;;;;;;876.40;777.95;;;;;;;;;;5318383;26;20031;-86
2021/07/11 18:45:54;;;;;;;1085.30;855.22;;;;;;;;;;5318201;27;20050;-86
2021/07/11 18:48:23;;;;;;;1088.13;856.20;;;;;;;;;;5314066;27;20400;-86
2021/07/11 18:50:52;;;;;;;700.80;645.00;;;;;;;;;;5313734;27;20025;-86
2021/07/11 18:53:20;;;;;;;819.50;739.33;;;;;;;;;;5316828;27;20032;-86
2021/07/11 18:55:49;;;;;;;881.83;793.80;;;;;;;;;;5316260;26;20484;-87
2021/07/11 18:58:18;;;;;;;840.87;759.78;;;;;;;;;;5315614;27;20024;-86
2021/07/11 19:00:47;;;;;;;704.75;645.62;;;;;;;;;;5315333;27;20051;-87
2021/07/11 19:03:17;;;;;;;937.90;824.83;;;;;;;;;;5317851;26;20040;-87
2021/07/11 19:05:46;;;;;;;778.65;708.40;;;;;;;;;;5313052;27;20026;-86
2021/07/11 19:08:14;;;;;;;701.55;642.08;;;;;;;;;;5316595;27;20062;-86
2021/07/11 19:10:43;;;;;;;911.37;806.40;;;;;;;;;;5317266;27;20039;-86
2021/07/11 19:13:12;;;;;;;696.80;640.75;;;;;;;;;;5318144;27;20024;-86
2021/07/11 19:15:40;;;;;;;744.08;683.00;;;;;;;;;;5318566;26;20021;-86
2021/07/11 19:18:09;;;;;;;616.45;570.25;;;;;;;;;;5318086;27;20058;-86
2021/07/11 19:20:38;;;;;;;671.55;617.00;;;;;;;;;;5318348;27;20128;-86
2021/07/11 19:23:06;;;;;;;693.40;638.87;;;;;;;;;;5316246;27;20031;-87
2021/07/11 19:25:35;;;;;;;589.20;541.35;;;;;;;;;;5316461;26;20029;-86
2021/07/11 19:28:05;;;;;;;553.38;511.33;;;;;;;;;;5316007;27;20658;-87
2021/07/11 19:30:34;;;;;;;770.78;706.28;;;;;;;;;;5316091;26;20016;-86
2021/07/11 19:33:07;;;;;;;776.83;708.78;;;;;;;;;;5315776;26;20036;-86
2021/07/11 19:35:37;;;;;;;701.65;645.53;;;;;;;;;;5314792;26;20858;-87
2021/07/11 19:38:06;;;;;;;730.92;670.00;;;;;;;;;;5317140;27;20051;-86
2021/07/11 19:40:36;;;;;;;567.67;524.65;;;;;;;;;;5317193;27;20352;-86
2021/07/11 19:43:04;;;;;;;568.03;521.80;;;;;;;;;;5314709;27;20071;-86
2021/07/11 19:45:33;;;;;;;658.80;605.33;;;;;;;;;;5312957;27;20056;-86
2021/07/11 19:48:03;;;;;;;666.80;611.67;;;;;;;;;;5316627;26;20050;-86
2021/07/11 19:50:32;;;;;;;652.78;598.65;;;;;;;;;;5315827;27;20384;-86
2021/07/11 19:53:01;;;;;;;645.22;591.08;;;;;;;;;;5315641;26;20083;-87
2021/07/11 19:55:29;;;;;;;554.53;510.13;;;;;;;;;;5312943;27;20024;-87
2021/07/11 19:57:57;;;;;;;515.30;474.45;;;;;;;;;;5317393;26;20017;-87
2021/07/11 20:00:27;;;;;;;471.75;435.67;;;;;;;;;;5314221;27;20496;-86
2021/07/11 20:02:56;;;;;;;605.42;554.78;;;;;;;;;;5316637;27;20025;-86
2021/07/11 20:05:24;;;;;;;700.10;640.05;;;;;;;;;;5314590;26;20487;-87
2021/07/11 20:07:53;;;;;;;523.17;481.92;;;;;;;;;;5313874;26;20462;-87
2021/07/11 20:10:26;;;;;;;618.53;566.85;;;;;;;;;;5311451;26;20370;-87
2021/07/11 20:12:54;;;;;;;519.55;476.85;;;;;;;;;;5315857;26;20075;-86
2021/07/11 20:15:23;;;;;;;522.20;477.88;;;;;;;;;;5315598;27;20029;-87
2021/07/11 20:17:52;;;;;;;428.48;393.90;;;;;;;;;;5316783;27;20025;-86
2021/07/11 20:20:21;;;;;;;559.25;515.85;;;;;;;;;;5315164;26;20017;-87
2021/07/11 20:22:49;;;;;;;559.17;516.05;;;;;;;;;;5317012;27;20084;-87
2021/07/11 20:25:18;;;;;;;532.97;491.80;;;;;;;;;;5317155;27;20027;-87
2021/07/11 20:27:46;;;;;;;493.35;457.65;;;;;;;;;;5314885;27;20390;-86
2021/07/11 20:30:15;;;;;;;587.90;539.28;;;;;;;;;;5315392;27;20060;-87
2021/07/11 20:32:44;;;;;;;528.38;486.80;;;;;;;;;;5316972;26;20038;-86
2021/07/11 20:35:13;;;;;;;392.30;362.50;;;;;;;;;;5314893;27;20027;-86
2021/07/11 20:37:42;;;;;;;440.88;405.60;;;;;;;;;;5315714;27;20029;-86
2021/07/11 20:40:12;;;;;;;391.45;361.98;;;;;;;;;;5314306;27;20061;-86
2021/07/11 20:42:41;;;;;;;442.35;408.42;;;;;;;;;;5311352;27;20503;-85
2021/07/11 20:45:10;;;;;;;355.95;330.95;;;;;;;;;;5314303;27;20518;-85
2021/07/11 20:47:39;;;;;;;565.22;519.90;;;;;;;;;;5313737;27;20043;-85
2021/07/11 20:50:08;;;;;;;501.27;464.87;;;;;;;;;;5313022;27;20017;-86
2021/07/11 20:52:37;;;;;;;367.87;340.35;;;;;;;;;;5312593;27;20477;-86
2021/07/11 20:55:09;;;;;;;407.80;379.33;;;;;;;;;;5313220;27;20058;-86
2021/07/11 20:57:38;;;;;;;364.15;338.12;;;;;;;;;;5314200;26;20756;-86
2021/07/11 21:00:06;;;;;;;372.12;346.05;;;;;;;;;;5294018;27;20350;-85
2021/07/11 21:02:35;;;;;;;316.63;294.90;;;;;;;;;;5314663;26;20048;-85
2021/07/11 21:05:04;;;;;;;369.92;344.20;;;;;;;;;;5315773;27;20473;-85
2021/07/11 21:07:34;;;;;;;411.92;383.23;;;;;;;;;;5315435;26;20104;-86
2021/07/11 21:10:03;;;;;;;433.33;401.60;;;;;;;;;;5314841;26;20445;-85
2021/07/11 21:12:32;;;;;;;539.65;495.62;;;;;;;;;;5315333;26;20036;-85
2021/07/11 21:15:00;;;;;;;435.63;400.87;;;;;;;;;;5316442;27;20021;-85
2021/07/11 21:17:28;;;;;;;451.33;415.80;;;;;;;;;;5314818;27;20013;-86
2021/07/11 21:19:57;;;;;;;837.33;716.20;;;;;;;;;;5318189;27;20552;-85
2021/07/11 21:22:26;;;;;;;748.90;675.75;;;;;;;;;;5313120;26;20678;-86